首页
METAR-TAF:

METAR-TAF

机场 :

赫羅納-布拉瓦海岸機場

赫罗纳, 西班牙

纬度: 41-54N, 经度: 002-46E, 海拔: 143米

当前天气观测

该预报发布于21分钟前的02:00 UTC
静风
温度 9°C
湿度 100%
气压 1025 hPa
能见度10公里或以上
1500米以下无云,无积雨云

METAR: LEGE 300200Z 00000KT CAVOK 09/09 Q1025

时间: 03:21 (02:21 UTC)

预报

该预报发布于3小时和21分钟前的23:00 UTC
预报有效从30日的 00点(UTC)到 30日的 24点(UTC)
风速4节,风向多变
能见度10公里或以上
少量云层高于2500英尺
几率 40% :
短暂存在
从 30日的 00点(UTC)到 30日的 07点(UTC)
能見度: 2000
多云层高于1000英尺
轻雾

TAF: LEGE 292300Z 3000/3024 VRB04KT 9999 FEW025 TX24/3013Z TN09/3006Z PROB40 TEMPO 3000/3007 2000 BR BKN010

超过4000个机场的气象观测和天气预报(METAR&TAF报告)。

可查询的气象台以黄色和红色小点在地图上表示。

将鼠标移到小点上方,可查看气象台名称。

然后点击查看天气观测和预报。

如需切换地图:点击带黑十字的绿色按钮放大地图;点击带横线的绿色按钮缩小地图;或者点击绿色箭头查看邻近地区的地图。


METAR-TAF: